sensor_id;sensor_type;location;lat;lon;timestamp;P1;durP1;ratioP1;P2;durP2;ratioP2
35917;SDS011;22011;59.912;30.300;2022-08-11T00:01:07;11.07;;;5.35;;
35917;SDS011;22011;59.912;30.300;2022-08-11T00:03:43;12.25;;;6.50;;
35917;SDS011;22011;59.912;30.300;2022-08-11T00:06:14;13.15;;;6.13;;
35917;SDS011;22011;59.912;30.300;2022-08-11T00:08:51;12.40;;;6.10;;
35917;SDS011;22011;59.912;30.300;2022-08-11T00:11:20;9.70;;;5.28;;
35917;SDS011;22011;59.912;30.300;2022-08-11T00:13:48;12.27;;;6.22;;
35917;SDS011;22011;59.912;30.300;2022-08-11T00:16:18;11.27;;;7.03;;
35917;SDS011;22011;59.912;30.300;2022-08-11T00:18:50;11.88;;;6.60;;
35917;SDS011;22011;59.912;30.300;2022-08-11T00:21:20;13.55;;;6.50;;
35917;SDS011;22011;59.912;30.300;2022-08-11T00:23:52;13.90;;;5.70;;
35917;SDS011;22011;59.912;30.300;2022-08-11T00:26:21;11.52;;;6.13;;
35917;SDS011;22011;59.912;30.300;2022-08-11T00:28:51;13.23;;;6.05;;
35917;SDS011;22011;59.912;30.300;2022-08-11T00:31:21;9.52;;;5.78;;
35917;SDS011;22011;59.912;30.300;2022-08-11T00:33:51;11.77;;;5.40;;
35917;SDS011;22011;59.912;30.300;2022-08-11T00:36:19;10.77;;;5.82;;
35917;SDS011;22011;59.912;30.300;2022-08-11T00:38:52;11.98;;;5.28;;
35917;SDS011;22011;59.912;30.300;2022-08-11T00:41:28;7.28;;;4.63;;
35917;SDS011;22011;59.912;30.300;2022-08-11T00:44:11;10.35;;;5.75;;
35917;SDS011;22011;59.912;30.300;2022-08-11T00:46:54;8.27;;;5.15;;
35917;SDS011;22011;59.912;30.300;2022-08-11T00:49:37;12.60;;;5.43;;
35917;SDS011;22011;59.912;30.300;2022-08-11T00:52:18;12.75;;;5.78;;
35917;SDS011;22011;59.912;30.300;2022-08-11T01:01:31;10.18;;;4.80;;
35917;SDS011;22011;59.912;30.300;2022-08-11T01:04:18;10.60;;;4.43;;
35917;SDS011;22011;59.912;30.300;2022-08-11T01:10:13;9.88;;;4.78;;
35917;SDS011;22011;59.912;30.300;2022-08-11T01:13:04;11.77;;;4.63;;
35917;SDS011;22011;59.912;30.300;2022-08-11T01:15:53;10.88;;;4.88;;
35917;SDS011;22011;59.912;30.300;2022-08-11T01:18:49;8.70;;;4.28;;
35917;SDS011;22011;59.912;30.300;2022-08-11T01:21:45;12.02;;;4.50;;
35917;SDS011;22011;59.912;30.300;2022-08-11T01:31:36;15.73;;;4.65;;
35917;SDS011;22011;59.912;30.300;2022-08-11T01:40:42;14.15;;;4.20;;
35917;SDS011;22011;59.912;30.300;2022-08-11T01:46:51;18.92;;;3.83;;
35917;SDS011;22011;59.912;30.300;2022-08-11T01:49:30;9.70;;;4.60;;
35917;SDS011;22011;59.912;30.300;2022-08-11T01:52:08;12.75;;;4.15;;
35917;SDS011;22011;59.912;30.300;2022-08-11T01:54:45;10.80;;;5.03;;
35917;SDS011;22011;59.912;30.300;2022-08-11T01:57:25;7.53;;;4.28;;
35917;SDS011;22011;59.912;30.300;2022-08-11T02:00:05;11.60;;;3.85;;
35917;SDS011;22011;59.912;30.300;2022-08-11T02:02:38;17.45;;;5.03;;
35917;SDS011;22011;59.912;30.300;2022-08-11T02:08:22;10.07;;;3.95;;
35917;SDS011;22011;59.912;30.300;2022-08-11T02:11:04;11.55;;;3.83;;
35917;SDS011;22011;59.912;30.300;2022-08-11T02:13:59;11.70;;;3.95;;
35917;SDS011;22011;59.912;30.300;2022-08-11T02:16:36;13.88;;;4.18;;
35917;SDS011;22011;59.912;30.300;2022-08-11T02:19:19;16.27;;;5.75;;
35917;SDS011;22011;59.912;30.300;2022-08-11T02:22:08;7.28;;;4.10;;
35917;SDS011;22011;59.912;30.300;2022-08-11T02:25:05;16.27;;;3.95;;
35917;SDS011;22011;59.912;30.300;2022-08-11T02:27:37;11.07;;;8.57;;
35917;SDS011;22011;59.912;30.300;2022-08-11T02:30:10;14.90;;;4.95;;
35917;SDS011;22011;59.912;30.300;2022-08-11T02:32:45;9.18;;;4.35;;
35917;SDS011;22011;59.912;30.300;2022-08-11T02:35:36;13.13;;;3.95;;
35917;SDS011;22011;59.912;30.300;2022-08-11T02:38:13;7.00;;;4.03;;
35917;SDS011;22011;59.912;30.300;2022-08-11T02:40:52;6.97;;;3.90;;
35917;SDS011;22011;59.912;30.300;2022-08-11T02:43:31;9.20;;;3.97;;
35917;SDS011;22011;59.912;30.300;2022-08-11T02:46:16;8.50;;;4.10;;
35917;SDS011;22011;59.912;30.300;2022-08-11T02:51:42;10.63;;;3.97;;
35917;SDS011;22011;59.912;30.300;2022-08-11T02:54:22;26.88;;;4.03;;
35917;SDS011;22011;59.912;30.300;2022-08-11T02:57:01;14.55;;;3.45;;
35917;SDS011;22011;59.912;30.300;2022-08-11T02:59:40;6.28;;;3.22;;
35917;SDS011;22011;59.912;30.300;2022-08-11T03:08:19;8.93;;;3.03;;
35917;SDS011;22011;59.912;30.300;2022-08-11T03:10:59;4.70;;;3.08;;
35917;SDS011;22011;59.912;30.300;2022-08-11T03:13:55;11.52;;;3.33;;
35917;SDS011;22011;59.912;30.300;2022-08-11T03:16:54;8.32;;;2.88;;
35917;SDS011;22011;59.912;30.300;2022-08-11T03:19:28;11.00;;;3.05;;
35917;SDS011;22011;59.912;30.300;2022-08-11T03:22:02;7.03;;;3.35;;
35917;SDS011;22011;59.912;30.300;2022-08-11T03:24:38;7.35;;;3.40;;
35917;SDS011;22011;59.912;30.300;2022-08-11T03:27:21;5.50;;;3.17;;
35917;SDS011;22011;59.912;30.300;2022-08-11T03:30:09;8.63;;;3.33;;
35917;SDS011;22011;59.912;30.300;2022-08-11T03:32:41;9.55;;;3.17;;
35917;SDS011;22011;59.912;30.300;2022-08-11T03:35:32;7.80;;;3.25;;
35917;SDS011;22011;59.912;30.300;2022-08-11T03:38:07;8.80;;;2.92;;
35917;SDS011;22011;59.912;30.300;2022-08-11T03:40:50;11.90;;;3.25;;
35917;SDS011;22011;59.912;30.300;2022-08-11T03:43:52;5.90;;;3.20;;
35917;SDS011;22011;59.912;30.300;2022-08-11T03:46:33;5.93;;;3.03;;
35917;SDS011;22011;59.912;30.300;2022-08-11T03:49:16;11.02;;;2.95;;
35917;SDS011;22011;59.912;30.300;2022-08-11T03:52:00;10.15;;;2.35;;
35917;SDS011;22011;59.912;30.300;2022-08-11T03:54:40;7.35;;;2.40;;
35917;SDS011;22011;59.912;30.300;2022-08-11T04:03:57;6.80;;;2.85;;
35917;SDS011;22011;59.912;30.300;2022-08-11T04:07:05;6.90;;;2.40;;
35917;SDS011;22011;59.912;30.300;2022-08-11T04:10:07;6.03;;;3.00;;
35917;SDS011;22011;59.912;30.300;2022-08-11T04:22:33;4.03;;;1.88;;
35917;SDS011;22011;59.912;30.300;2022-08-11T04:25:22;2.58;;;1.98;;
35917;SDS011;22011;59.912;30.300;2022-08-11T04:28:11;6.00;;;2.58;;
35917;SDS011;22011;59.912;30.300;2022-08-11T04:31:15;6.35;;;2.38;;
35917;SDS011;22011;59.912;30.300;2022-08-11T04:34:13;5.35;;;2.30;;
35917;SDS011;22011;59.912;30.300;2022-08-11T04:37:09;10.10;;;2.25;;
35917;SDS011;22011;59.912;30.300;2022-08-11T04:40:03;6.97;;;2.67;;
35917;SDS011;22011;59.912;30.300;2022-08-11T04:45:59;5.40;;;2.28;;
35917;SDS011;22011;59.912;30.300;2022-08-11T04:49:05;8.40;;;2.47;;
35917;SDS011;22011;59.912;30.300;2022-08-11T04:52:23;10.00;;;3.28;;
35917;SDS011;22011;59.912;30.300;2022-08-11T04:55:27;5.78;;;1.90;;
35917;SDS011;22011;59.912;30.300;2022-08-11T04:58:28;6.00;;;2.17;;
35917;SDS011;22011;59.912;30.300;2022-08-11T05:01:35;8.95;;;4.30;;
35917;SDS011;22011;59.912;30.300;2022-08-11T05:04:36;5.95;;;2.40;;
35917;SDS011;22011;59.912;30.300;2022-08-11T05:07:46;7.38;;;2.08;;
35917;SDS011;22011;59.912;30.300;2022-08-11T05:10:47;4.93;;;2.38;;
35917;SDS011;22011;59.912;30.300;2022-08-11T05:13:26;6.20;;;2.28;;
35917;SDS011;22011;59.912;30.300;2022-08-11T05:16:16;6.25;;;2.22;;
35917;SDS011;22011;59.912;30.300;2022-08-11T05:19:04;6.00;;;2.40;;
35917;SDS011;22011;59.912;30.300;2022-08-11T05:21:51;2.38;;;1.70;;
35917;SDS011;22011;59.912;30.300;2022-08-11T05:24:40;5.40;;;1.73;;
35917;SDS011;22011;59.912;30.300;2022-08-11T05:27:31;7.72;;;2.88;;
35917;SDS011;22011;59.912;30.300;2022-08-11T05:30:19;4.82;;;2.00;;
35917;SDS011;22011;59.912;30.300;2022-08-11T05:33:13;6.57;;;2.08;;
35917;SDS011;22011;59.912;30.300;2022-08-11T05:36:07;5.93;;;2.50;;
35917;SDS011;22011;59.912;30.300;2022-08-11T05:38:48;4.65;;;2.30;;
35917;SDS011;22011;59.912;30.300;2022-08-11T05:41:37;6.03;;;2.33;;
35917;SDS011;22011;59.912;30.300;2022-08-11T05:44:26;6.95;;;2.40;;
35917;SDS011;22011;59.912;30.300;2022-08-11T05:47:20;4.72;;;2.10;;
35917;SDS011;22011;59.912;30.300;2022-08-11T05:50:07;3.97;;;2.40;;
35917;SDS011;22011;59.912;30.300;2022-08-11T05:52:54;3.85;;;2.00;;
35917;SDS011;22011;59.912;30.300;2022-08-11T05:55:40;6.65;;;2.30;;
35917;SDS011;22011;59.912;30.300;2022-08-11T05:58:30;4.82;;;2.10;;
35917;SDS011;22011;59.912;30.300;2022-08-11T06:01:00;3.88;;;2.25;;
35917;SDS011;22011;59.912;30.300;2022-08-11T06:03:29;5.57;;;2.00;;
35917;SDS011;22011;59.912;30.300;2022-08-11T06:06:18;6.93;;;2.17;;
35917;SDS011;22011;59.912;30.300;2022-08-11T06:08:49;7.47;;;1.70;;
35917;SDS011;22011;59.912;30.300;2022-08-11T06:11:21;2.78;;;1.95;;
35917;SDS011;22011;59.912;30.300;2022-08-11T06:13:50;5.85;;;1.88;;
35917;SDS011;22011;59.912;30.300;2022-08-11T06:16:22;6.10;;;2.38;;
35917;SDS011;22011;59.912;30.300;2022-08-11T06:18:52;2.95;;;1.80;;
35917;SDS011;22011;59.912;30.300;2022-08-11T06:21:21;3.55;;;2.42;;
35917;SDS011;22011;59.912;30.300;2022-08-11T06:23:49;9.07;;;2.70;;
35917;SDS011;22011;59.912;30.300;2022-08-11T06:26:17;4.60;;;2.17;;
35917;SDS011;22011;59.912;30.300;2022-08-11T06:28:46;5.20;;;2.15;;
35917;SDS011;22011;59.912;30.300;2022-08-11T06:31:16;7.70;;;2.25;;
35917;SDS011;22011;59.912;30.300;2022-08-11T06:33:51;6.43;;;1.83;;
35917;SDS011;22011;59.912;30.300;2022-08-11T06:36:30;8.65;;;2.47;;
35917;SDS011;22011;59.912;30.300;2022-08-11T06:39:25;9.88;;;2.00;;
35917;SDS011;22011;59.912;30.300;2022-08-11T06:42:01;6.68;;;1.90;;
35917;SDS011;22011;59.912;30.300;2022-08-11T06:44:46;4.43;;;1.90;;
35917;SDS011;22011;59.912;30.300;2022-08-11T06:47:48;5.88;;;2.40;;
35917;SDS011;22011;59.912;30.300;2022-08-11T06:50:26;6.18;;;2.95;;
35917;SDS011;22011;59.912;30.300;2022-08-11T06:53:21;19.27;;;2.80;;
35917;SDS011;22011;59.912;30.300;2022-08-11T06:58:42;5.80;;;2.17;;
35917;SDS011;22011;59.912;30.300;2022-08-11T07:01:41;3.55;;;2.20;;
35917;SDS011;22011;59.912;30.300;2022-08-11T07:04:16;3.40;;;1.70;;
35917;SDS011;22011;59.912;30.300;2022-08-11T07:06:56;8.75;;;2.13;;
35917;SDS011;22011;59.912;30.300;2022-08-11T07:10:06;5.60;;;1.80;;
35917;SDS011;22011;59.912;30.300;2022-08-11T07:13:16;10.57;;;2.08;;
35917;SDS011;22011;59.912;30.300;2022-08-11T07:16:05;5.75;;;1.92;;
35917;SDS011;22011;59.912;30.300;2022-08-11T07:18:34;5.03;;;1.55;;
35917;SDS011;22011;59.912;30.300;2022-08-11T07:21:21;2.63;;;1.20;;
35917;SDS011;22011;59.912;30.300;2022-08-11T07:24:12;5.90;;;2.00;;
35917;SDS011;22011;59.912;30.300;2022-08-11T07:27:09;3.67;;;1.70;;
35917;SDS011;22011;59.912;30.300;2022-08-11T07:30:09;3.95;;;2.00;;
35917;SDS011;22011;59.912;30.300;2022-08-11T07:32:40;10.05;;;1.95;;
35917;SDS011;22011;59.912;30.300;2022-08-11T07:35:15;4.82;;;1.98;;
35917;SDS011;22011;59.912;30.300;2022-08-11T07:37:46;4.43;;;1.80;;
35917;SDS011;22011;59.912;30.300;2022-08-11T07:40:21;5.32;;;1.92;;
35917;SDS011;22011;59.912;30.300;2022-08-11T07:42:50;6.22;;;2.45;;
35917;SDS011;22011;59.912;30.300;2022-08-11T07:45:18;4.63;;;2.33;;
35917;SDS011;22011;59.912;30.300;2022-08-11T07:48:04;3.38;;;1.90;;
35917;SDS011;22011;59.912;30.300;2022-08-11T07:50:51;5.22;;;1.90;;
35917;SDS011;22011;59.912;30.300;2022-08-11T07:53:37;5.57;;;2.13;;
35917;SDS011;22011;59.912;30.300;2022-08-11T07:56:06;8.82;;;2.17;;
35917;SDS011;22011;59.912;30.300;2022-08-11T07:58:34;3.67;;;1.92;;
35917;SDS011;22011;59.912;30.300;2022-08-11T08:01:21;3.53;;;1.70;;
35917;SDS011;22011;59.912;30.300;2022-08-11T08:04:08;8.32;;;2.38;;
35917;SDS011;22011;59.912;30.300;2022-08-11T08:06:57;9.02;;;2.30;;
35917;SDS011;22011;59.912;30.300;2022-08-11T08:09:42;6.50;;;1.90;;
35917;SDS011;22011;59.912;30.300;2022-08-11T08:12:29;22.85;;;3.08;;
35917;SDS011;22011;59.912;30.300;2022-08-11T08:15:15;10.25;;;1.80;;
35917;SDS011;22011;59.912;30.300;2022-08-11T08:18:01;4.85;;;1.88;;
35917;SDS011;22011;59.912;30.300;2022-08-11T08:20:31;3.55;;;1.42;;
35917;SDS011;22011;59.912;30.300;2022-08-11T08:23:02;10.43;;;2.25;;
35917;SDS011;22011;59.912;30.300;2022-08-11T08:25:33;8.02;;;1.80;;
35917;SDS011;22011;59.912;30.300;2022-08-11T08:28:06;5.30;;;2.00;;
35917;SDS011;22011;59.912;30.300;2022-08-11T08:30:36;3.53;;;1.85;;
35917;SDS011;22011;59.912;30.300;2022-08-11T08:33:12;2.67;;;1.35;;
35917;SDS011;22011;59.912;30.300;2022-08-11T08:35:42;8.32;;;2.08;;
35917;SDS011;22011;59.912;30.300;2022-08-11T08:38:11;4.47;;;1.83;;
35917;SDS011;22011;59.912;30.300;2022-08-11T08:40:41;4.77;;;1.90;;
35917;SDS011;22011;59.912;30.300;2022-08-11T08:43:12;4.68;;;1.73;;
35917;SDS011;22011;59.912;30.300;2022-08-11T08:45:43;4.80;;;1.60;;
35917;SDS011;22011;59.912;30.300;2022-08-11T08:48:12;6.70;;;1.83;;
35917;SDS011;22011;59.912;30.300;2022-08-11T08:50:43;6.53;;;1.80;;
35917;SDS011;22011;59.912;30.300;2022-08-11T08:53:38;8.57;;;1.60;;
35917;SDS011;22011;59.912;30.300;2022-08-11T08:56:09;7.10;;;1.95;;
35917;SDS011;22011;59.912;30.300;2022-08-11T08:58:39;3.17;;;1.40;;
35917;SDS011;22011;59.912;30.300;2022-08-11T09:01:08;9.07;;;1.98;;
35917;SDS011;22011;59.912;30.300;2022-08-11T09:03:37;7.90;;;1.50;;
35917;SDS011;22011;59.912;30.300;2022-08-11T09:06:05;8.55;;;1.63;;
35917;SDS011;22011;59.912;30.300;2022-08-11T09:08:34;4.63;;;2.33;;
35917;SDS011;22011;59.912;30.300;2022-08-11T09:11:03;5.93;;;2.80;;
35917;SDS011;22011;59.912;30.300;2022-08-11T09:13:50;4.78;;;1.95;;
35917;SDS011;22011;59.912;30.300;2022-08-11T09:16:19;3.47;;;1.90;;
35917;SDS011;22011;59.912;30.300;2022-08-11T09:18:49;3.67;;;2.05;;
35917;SDS011;22011;59.912;30.300;2022-08-11T09:21:18;4.13;;;2.17;;
35917;SDS011;22011;59.912;30.300;2022-08-11T09:23:48;6.28;;;1.83;;
35917;SDS011;22011;59.912;30.300;2022-08-11T09:26:34;2.47;;;1.50;;
35917;SDS011;22011;59.912;30.300;2022-08-11T09:29:28;5.05;;;1.80;;
35917;SDS011;22011;59.912;30.300;2022-08-11T09:31:57;4.22;;;1.92;;
35917;SDS011;22011;59.912;30.300;2022-08-11T09:34:26;4.88;;;1.90;;
35917;SDS011;22011;59.912;30.300;2022-08-11T09:36:54;3.97;;;1.83;;
35917;SDS011;22011;59.912;30.300;2022-08-11T09:39:40;4.22;;;1.90;;
35917;SDS011;22011;59.912;30.300;2022-08-11T09:42:25;13.23;;;1.92;;
35917;SDS011;22011;59.912;30.300;2022-08-11T09:45:15;4.55;;;1.92;;
35917;SDS011;22011;59.912;30.300;2022-08-11T09:47:43;4.00;;;1.60;;
35917;SDS011;22011;59.912;30.300;2022-08-11T09:50:11;8.57;;;1.73;;
35917;SDS011;22011;59.912;30.300;2022-08-11T09:52:42;4.97;;;1.90;;
35917;SDS011;22011;59.912;30.300;2022-08-11T09:55:13;5.00;;;2.38;;
35917;SDS011;22011;59.912;30.300;2022-08-11T09:57:43;5.47;;;2.03;;
35917;SDS011;22011;59.912;30.300;2022-08-11T10:00:33;13.63;;;3.00;;
35917;SDS011;22011;59.912;30.300;2022-08-11T10:03:03;14.57;;;3.25;;
35917;SDS011;22011;59.912;30.300;2022-08-11T10:05:34;14.98;;;7.45;;
35917;SDS011;22011;59.912;30.300;2022-08-11T10:08:22;21.98;;;3.92;;
35917;SDS011;22011;59.912;30.300;2022-08-11T10:10:54;125.63;;;9.52;;
35917;SDS011;22011;59.912;30.300;2022-08-11T10:13:25;15.07;;;3.33;;
35917;SDS011;22011;59.912;30.300;2022-08-11T10:16:02;9.45;;;2.97;;
35917;SDS011;22011;59.912;30.300;2022-08-11T10:18:33;3.00;;;1.77;;
35917;SDS011;22011;59.912;30.300;2022-08-11T10:21:16;8.30;;;4.30;;
35917;SDS011;22011;59.912;30.300;2022-08-11T10:23:57;12.75;;;3.10;;
35917;SDS011;22011;59.912;30.300;2022-08-11T10:26:44;7.22;;;2.63;;
35917;SDS011;22011;59.912;30.300;2022-08-11T10:29:24;9.77;;;2.58;;
35917;SDS011;22011;59.912;30.300;2022-08-11T10:32:12;5.82;;;2.80;;
35917;SDS011;22011;59.912;30.300;2022-08-11T10:35:02;4.20;;;1.70;;
35917;SDS011;22011;59.912;30.300;2022-08-11T10:37:35;8.70;;;1.88;;
35917;SDS011;22011;59.912;30.300;2022-08-11T10:40:04;8.93;;;2.40;;
35917;SDS011;22011;59.912;30.300;2022-08-11T10:42:33;5.00;;;2.25;;
35917;SDS011;22011;59.912;30.300;2022-08-11T10:45:19;9.77;;;1.90;;
35917;SDS011;22011;59.912;30.300;2022-08-11T10:48:06;10.02;;;2.10;;
35917;SDS011;22011;59.912;30.300;2022-08-11T10:50:35;8.70;;;2.60;;
35917;SDS011;22011;59.912;30.300;2022-08-11T10:53:21;4.60;;;1.55;;
35917;SDS011;22011;59.912;30.300;2022-08-11T10:56:07;5.80;;;1.80;;
35917;SDS011;22011;59.912;30.300;2022-08-11T10:58:53;3.83;;;1.55;;
35917;SDS011;22011;59.912;30.300;2022-08-11T11:01:25;3.25;;;1.55;;
35917;SDS011;22011;59.912;30.300;2022-08-11T11:04:03;9.70;;;2.60;;
35917;SDS011;22011;59.912;30.300;2022-08-11T11:06:35;7.32;;;1.73;;
35917;SDS011;22011;59.912;30.300;2022-08-11T11:09:11;3.95;;;2.22;;
35917;SDS011;22011;59.912;30.300;2022-08-11T11:11:44;8.85;;;2.22;;
35917;SDS011;22011;59.912;30.300;2022-08-11T11:14:35;9.15;;;2.40;;
35917;SDS011;22011;59.912;30.300;2022-08-11T11:17:22;8.20;;;1.85;;
35917;SDS011;22011;59.912;30.300;2022-08-11T11:20:17;7.07;;;2.00;;
35917;SDS011;22011;59.912;30.300;2022-08-11T11:22:50;4.57;;;2.22;;
35917;SDS011;22011;59.912;30.300;2022-08-11T11:25:21;6.10;;;1.80;;
35917;SDS011;22011;59.912;30.300;2022-08-11T11:28:23;5.80;;;1.60;;
35917;SDS011;22011;59.912;30.300;2022-08-11T11:31:05;6.28;;;1.70;;
35917;SDS011;22011;59.912;30.300;2022-08-11T11:33:46;6.60;;;2.45;;
35917;SDS011;22011;59.912;30.300;2022-08-11T11:36:30;4.90;;;2.00;;
35917;SDS011;22011;59.912;30.300;2022-08-11T11:39:06;2.53;;;1.55;;
35917;SDS011;22011;59.912;30.300;2022-08-11T11:41:35;8.87;;;1.93;;
35917;SDS011;22011;59.912;30.300;2022-08-11T11:44:03;5.38;;;2.22;;
35917;SDS011;22011;59.912;30.300;2022-08-11T11:46:32;9.63;;;2.20;;
35917;SDS011;22011;59.912;30.300;2022-08-11T11:49:01;6.78;;;2.67;;
35917;SDS011;22011;59.912;30.300;2022-08-11T11:51:35;2.95;;;1.20;;
35917;SDS011;22011;59.912;30.300;2022-08-11T11:54:04;10.93;;;2.00;;
35917;SDS011;22011;59.912;30.300;2022-08-11T11:56:32;4.30;;;1.58;;
35917;SDS011;22011;59.912;30.300;2022-08-11T11:59:01;6.80;;;1.77;;
35917;SDS011;22011;59.912;30.300;2022-08-11T12:01:46;3.78;;;1.70;;
35917;SDS011;22011;59.912;30.300;2022-08-11T12:04:14;6.80;;;1.73;;
35917;SDS011;22011;59.912;30.300;2022-08-11T12:06:45;3.47;;;1.65;;
35917;SDS011;22011;59.912;30.300;2022-08-11T12:09:13;5.88;;;1.65;;
35917;SDS011;22011;59.912;30.300;2022-08-11T12:11:43;6.38;;;1.80;;
35917;SDS011;22011;59.912;30.300;2022-08-11T12:14:28;3.20;;;2.03;;
35917;SDS011;22011;59.912;30.300;2022-08-11T12:16:56;7.22;;;1.73;;
35917;SDS011;22011;59.912;30.300;2022-08-11T12:19:25;24.52;;;3.08;;
35917;SDS011;22011;59.912;30.300;2022-08-11T12:21:56;12.02;;;3.33;;
35917;SDS011;22011;59.912;30.300;2022-08-11T12:24:42;6.57;;;1.90;;
35917;SDS011;22011;59.912;30.300;2022-08-11T12:27:29;10.43;;;2.67;;
35917;SDS011;22011;59.912;30.300;2022-08-11T12:29:58;7.35;;;1.85;;
35917;SDS011;22011;59.912;30.300;2022-08-11T12:32:31;10.93;;;1.83;;
35917;SDS011;22011;59.912;30.300;2022-08-11T12:35:01;7.18;;;1.50;;
35917;SDS011;22011;59.912;30.300;2022-08-11T12:37:31;9.37;;;1.80;;
35917;SDS011;22011;59.912;30.300;2022-08-11T12:40:04;9.27;;;2.60;;
35917;SDS011;22011;59.912;30.300;2022-08-11T12:42:53;13.93;;;2.28;;
35917;SDS011;22011;59.912;30.300;2022-08-11T12:45:40;8.07;;;1.80;;
35917;SDS011;22011;59.912;30.300;2022-08-11T12:48:09;10.65;;;1.73;;
35917;SDS011;22011;59.912;30.300;2022-08-11T12:51:01;8.15;;;1.95;;
35917;SDS011;22011;59.912;30.300;2022-08-11T12:53:52;15.48;;;2.58;;
35917;SDS011;22011;59.912;30.300;2022-08-11T12:56:25;12.52;;;2.45;;
35917;SDS011;22011;59.912;30.300;2022-08-11T12:59:15;3.60;;;1.80;;
35917;SDS011;22011;59.912;30.300;2022-08-11T13:02:01;7.68;;;2.53;;
35917;SDS011;22011;59.912;30.300;2022-08-11T13:04:47;9.82;;;1.98;;
35917;SDS011;22011;59.912;30.300;2022-08-11T13:07:24;7.32;;;2.10;;
35917;SDS011;22011;59.912;30.300;2022-08-11T13:09:55;11.18;;;2.08;;
35917;SDS011;22011;59.912;30.300;2022-08-11T13:12:23;5.18;;;1.98;;
35917;SDS011;22011;59.912;30.300;2022-08-11T13:15:13;8.05;;;4.18;;
35917;SDS011;22011;59.912;30.300;2022-08-11T13:17:42;4.75;;;2.03;;
35917;SDS011;22011;59.912;30.300;2022-08-11T13:20:10;4.55;;;1.77;;
35917;SDS011;22011;59.912;30.300;2022-08-11T13:22:40;7.68;;;3.00;;
35917;SDS011;22011;59.912;30.300;2022-08-11T13:28:01;10.70;;;3.03;;
35917;SDS011;22011;59.912;30.300;2022-08-11T13:30:30;17.23;;;3.90;;
35917;SDS011;22011;59.912;30.300;2022-08-11T13:33:16;6.47;;;2.30;;
35917;SDS011;22011;59.912;30.300;2022-08-11T13:35:45;10.95;;;2.50;;
35917;SDS011;22011;59.912;30.300;2022-08-11T13:38:15;8.85;;;2.30;;
35917;SDS011;22011;59.912;30.300;2022-08-11T13:40:46;9.88;;;2.65;;
35917;SDS011;22011;59.912;30.300;2022-08-11T13:43:15;7.57;;;2.85;;
35917;SDS011;22011;59.912;30.300;2022-08-11T13:45:45;8.00;;;3.20;;
35917;SDS011;22011;59.912;30.300;2022-08-11T13:48:15;5.75;;;2.88;;
35917;SDS011;22011;59.912;30.300;2022-08-11T13:50:43;16.77;;;3.30;;
35917;SDS011;22011;59.912;30.300;2022-08-11T13:53:29;7.60;;;1.98;;
35917;SDS011;22011;59.912;30.300;2022-08-11T13:55:59;14.13;;;2.90;;
35917;SDS011;22011;59.912;30.300;2022-08-11T13:58:27;9.80;;;2.58;;
35917;SDS011;22011;59.912;30.300;2022-08-11T14:00:56;17.10;;;2.75;;
35917;SDS011;22011;59.912;30.300;2022-08-11T14:03:25;10.35;;;2.08;;
35917;SDS011;22011;59.912;30.300;2022-08-11T14:05:55;4.72;;;2.30;;
35917;SDS011;22011;59.912;30.300;2022-08-11T14:08:27;5.63;;;2.30;;
35917;SDS011;22011;59.912;30.300;2022-08-11T14:11:00;13.63;;;4.28;;
35917;SDS011;22011;59.912;30.300;2022-08-11T14:13:47;7.03;;;2.38;;
35917;SDS011;22011;59.912;30.300;2022-08-11T14:16:18;5.97;;;1.73;;
35917;SDS011;22011;59.912;30.300;2022-08-11T14:18:49;4.07;;;1.63;;
35917;SDS011;22011;59.912;30.300;2022-08-11T14:21:20;5.25;;;1.70;;
35917;SDS011;22011;59.912;30.300;2022-08-11T14:24:07;2.15;;;1.45;;
35917;SDS011;22011;59.912;30.300;2022-08-11T14:26:38;2.80;;;1.92;;
35917;SDS011;22011;59.912;30.300;2022-08-11T14:29:08;5.22;;;1.88;;
35917;SDS011;22011;59.912;30.300;2022-08-11T14:31:42;9.18;;;2.28;;
35917;SDS011;22011;59.912;30.300;2022-08-11T14:34:11;11.70;;;1.70;;
35917;SDS011;22011;59.912;30.300;2022-08-11T14:36:42;6.55;;;1.88;;
35917;SDS011;22011;59.912;30.300;2022-08-11T14:39:11;7.28;;;1.77;;
35917;SDS011;22011;59.912;30.300;2022-08-11T14:41:43;5.18;;;1.60;;
35917;SDS011;22011;59.912;30.300;2022-08-11T14:44:31;8.18;;;2.35;;
35917;SDS011;22011;59.912;30.300;2022-08-11T14:47:19;10.50;;;1.67;;
35917;SDS011;22011;59.912;30.300;2022-08-11T14:49:48;3.00;;;1.40;;
35917;SDS011;22011;59.912;30.300;2022-08-11T14:52:17;2.90;;;1.58;;
35917;SDS011;22011;59.912;30.300;2022-08-11T14:54:46;3.90;;;1.70;;
35917;SDS011;22011;59.912;30.300;2022-08-11T14:57:36;5.30;;;1.50;;
35917;SDS011;22011;59.912;30.300;2022-08-11T15:00:07;13.50;;;2.47;;
35917;SDS011;22011;59.912;30.300;2022-08-11T15:02:38;8.13;;;1.60;;
35917;SDS011;22011;59.912;30.300;2022-08-11T15:05:23;6.72;;;1.60;;
35917;SDS011;22011;59.912;30.300;2022-08-11T15:07:53;8.25;;;2.30;;
35917;SDS011;22011;59.912;30.300;2022-08-11T15:10:23;6.15;;;1.90;;
35917;SDS011;22011;59.912;30.300;2022-08-11T15:12:52;9.65;;;1.65;;
35917;SDS011;22011;59.912;30.300;2022-08-11T15:15:21;4.82;;;1.55;;
35917;SDS011;22011;59.912;30.300;2022-08-11T15:18:09;2.10;;;1.33;;
35917;SDS011;22011;59.912;30.300;2022-08-11T15:20:39;6.03;;;1.45;;
35917;SDS011;22011;59.912;30.300;2022-08-11T15:23:24;2.90;;;1.95;;
35917;SDS011;22011;59.912;30.300;2022-08-11T15:26:10;8.30;;;1.80;;
35917;SDS011;22011;59.912;30.300;2022-08-11T15:28:43;3.53;;;1.58;;
35917;SDS011;22011;59.912;30.300;2022-08-11T15:31:31;4.05;;;1.67;;
35917;SDS011;22011;59.912;30.300;2022-08-11T15:34:19;3.55;;;1.65;;
35917;SDS011;22011;59.912;30.300;2022-08-11T15:37:08;8.35;;;1.90;;
35917;SDS011;22011;59.912;30.300;2022-08-11T15:40:05;6.53;;;2.05;;
35917;SDS011;22011;59.912;30.300;2022-08-11T15:42:56;4.27;;;1.57;;
35917;SDS011;22011;59.912;30.300;2022-08-11T15:45:46;3.40;;;1.60;;
35917;SDS011;22011;59.912;30.300;2022-08-11T15:48:26;3.55;;;2.03;;
35917;SDS011;22011;59.912;30.300;2022-08-11T15:51:02;4.15;;;1.70;;
35917;SDS011;22011;59.912;30.300;2022-08-11T15:53:38;2.70;;;1.63;;
35917;SDS011;22011;59.912;30.300;2022-08-11T15:56:08;8.20;;;1.73;;
35917;SDS011;22011;59.912;30.300;2022-08-11T15:58:38;4.25;;;1.80;;
35917;SDS011;22011;59.912;30.300;2022-08-11T16:01:27;6.00;;;1.97;;
35917;SDS011;22011;59.912;30.300;2022-08-11T16:04:14;7.38;;;2.75;;
35917;SDS011;22011;59.912;30.300;2022-08-11T16:06:44;2.28;;;1.88;;
35917;SDS011;22011;59.912;30.300;2022-08-11T16:09:17;2.80;;;1.75;;
35917;SDS011;22011;59.912;30.300;2022-08-11T16:11:48;4.60;;;2.05;;
35917;SDS011;22011;59.912;30.300;2022-08-11T16:14:18;6.20;;;2.25;;
35917;SDS011;22011;59.912;30.300;2022-08-11T16:17:10;9.88;;;2.72;;
35917;SDS011;22011;59.912;30.300;2022-08-11T16:19:42;7.07;;;2.03;;
35917;SDS011;22011;59.912;30.300;2022-08-11T16:22:11;4.82;;;1.60;;
35917;SDS011;22011;59.912;30.300;2022-08-11T16:24:43;4.60;;;2.05;;
35917;SDS011;22011;59.912;30.300;2022-08-11T16:27:12;7.43;;;2.22;;
35917;SDS011;22011;59.912;30.300;2022-08-11T16:29:44;2.95;;;1.70;;
35917;SDS011;22011;59.912;30.300;2022-08-11T16:32:15;5.15;;;1.83;;
35917;SDS011;22011;59.912;30.300;2022-08-11T16:34:49;6.07;;;2.00;;
35917;SDS011;22011;59.912;30.300;2022-08-11T16:37:38;2.00;;;1.60;;
35917;SDS011;22011;59.912;30.300;2022-08-11T16:40:24;3.40;;;2.10;;
35917;SDS011;22011;59.912;30.300;2022-08-11T16:42:52;7.78;;;2.10;;
35917;SDS011;22011;59.912;30.300;2022-08-11T16:45:40;4.57;;;1.40;;